sensor_id;sensor_type;location;lat;lon;timestamp;pressure;altitude;pressure_sealevel;temperature;humidity
39699;BME280;25372;50.582;12.250;2023-02-23T00:09:41;99586.16;;;2.95;100.00
39699;BME280;25372;50.582;12.250;2023-02-23T00:20:04;99576.50;;;3.06;100.00
39699;BME280;25372;50.582;12.250;2023-02-23T00:30:31;99577.09;;;3.37;100.00
39699;BME280;25372;50.582;12.250;2023-02-23T00:40:52;99576.09;;;3.48;100.00
39699;BME280;25372;50.582;12.250;2023-02-23T00:51:15;99579.16;;;3.71;100.00
39699;BME280;25372;50.582;12.250;2023-02-23T01:01:36;99580.38;;;3.77;100.00
39699;BME280;25372;50.582;12.250;2023-02-23T01:11:58;99575.38;;;3.83;100.00
39699;BME280;25372;50.582;12.250;2023-02-23T01:22:19;99572.34;;;3.78;100.00
39699;BME280;25372;50.582;12.250;2023-02-23T01:32:42;99566.28;;;3.60;100.00
39699;BME280;25372;50.582;12.250;2023-02-23T01:43:11;99553.72;;;3.81;100.00
39699;BME280;25372;50.582;12.250;2023-02-23T01:53:37;99537.13;;;3.91;100.00
39699;BME280;25372;50.582;12.250;2023-02-23T02:04:01;99510.44;;;4.49;100.00
39699;BME280;25372;50.582;12.250;2023-02-23T02:14:28;99504.00;;;4.70;100.00
39699;BME280;25372;50.582;12.250;2023-02-23T02:25:11;99489.34;;;4.85;100.00
39699;BME280;25372;50.582;12.250;2023-02-23T02:35:49;99492.28;;;4.82;100.00
39699;BME280;25372;50.582;12.250;2023-02-23T02:46:20;99491.81;;;4.87;100.00
39699;BME280;25372;50.582;12.250;2023-02-23T02:56:43;99473.19;;;4.98;100.00
39699;BME280;25372;50.582;12.250;2023-02-23T03:07:10;99463.97;;;4.94;100.00
39699;BME280;25372;50.582;12.250;2023-02-23T03:17:54;99469.47;;;4.83;100.00
39699;BME280;25372;50.582;12.250;2023-02-23T03:28:44;99461.81;;;4.89;100.00
39699;BME280;25372;50.582;12.250;2023-02-23T03:39:31;99454.59;;;4.92;100.00
39699;BME280;25372;50.582;12.250;2023-02-23T03:50:18;99463.16;;;4.94;100.00
39699;BME280;25372;50.582;12.250;2023-02-23T04:01:01;99472.63;;;4.86;100.00
39699;BME280;25372;50.582;12.250;2023-02-23T04:11:48;99482.34;;;4.94;100.00
39699;BME280;25372;50.582;12.250;2023-02-23T04:22:28;99479.25;;;4.72;100.00
39699;BME280;25372;50.582;12.250;2023-02-23T04:32:51;99498.72;;;4.62;100.00
39699;BME280;25372;50.582;12.250;2023-02-23T04:43:12;99495.72;;;4.57;100.00
39699;BME280;25372;50.582;12.250;2023-02-23T04:53:34;99481.78;;;4.38;100.00
39699;BME280;25372;50.582;12.250;2023-02-23T05:03:55;99484.28;;;4.22;100.00
39699;BME280;25372;50.582;12.250;2023-02-23T05:14:17;99501.53;;;3.88;100.00
39699;BME280;25372;50.582;12.250;2023-02-23T05:24:38;99499.22;;;3.85;100.00
39699;BME280;25372;50.582;12.250;2023-02-23T05:35:00;99499.81;;;3.79;100.00
39699;BME280;25372;50.582;12.250;2023-02-23T05:45:22;99504.84;;;3.62;100.00
39699;BME280;25372;50.582;12.250;2023-02-23T05:55:44;99517.72;;;3.56;100.00
39699;BME280;25372;50.582;12.250;2023-02-23T06:06:05;99518.78;;;3.91;100.00
39699;BME280;25372;50.582;12.250;2023-02-23T06:16:27;99526.84;;;3.79;100.00
39699;BME280;25372;50.582;12.250;2023-02-23T06:26:49;99537.19;;;3.99;100.00
39699;BME280;25372;50.582;12.250;2023-02-23T06:37:10;99526.94;;;4.06;100.00
39699;BME280;25372;50.582;12.250;2023-02-23T06:47:31;99527.53;;;4.53;100.00
39699;BME280;25372;50.582;12.250;2023-02-23T06:57:53;99515.59;;;5.12;100.00
39699;BME280;25372;50.582;12.250;2023-02-23T07:08:15;99515.88;;;5.43;100.00
39699;BME280;25372;50.582;12.250;2023-02-23T07:18:37;99524.06;;;5.74;100.00
39699;BME280;25372;50.582;12.250;2023-02-23T07:28:58;99512.28;;;5.95;100.00
39699;BME280;25372;50.582;12.250;2023-02-23T07:39:20;99518.09;;;6.32;100.00
39699;BME280;25372;50.582;12.250;2023-02-23T07:49:41;99517.97;;;6.50;100.00
39699;BME280;25372;50.582;12.250;2023-02-23T08:00:04;99526.09;;;7.04;100.00
39699;BME280;25372;50.582;12.250;2023-02-23T08:10:32;99518.38;;;6.94;100.00
39699;BME280;25372;50.582;12.250;2023-02-23T08:20:58;99520.16;;;7.58;98.57
39699;BME280;25372;50.582;12.250;2023-02-23T08:31:19;99524.19;;;7.46;96.96
39699;BME280;25372;50.582;12.250;2023-02-23T08:41:43;99530.19;;;7.94;95.67
39699;BME280;25372;50.582;12.250;2023-02-23T08:52:04;99527.56;;;8.17;94.09
39699;BME280;25372;50.582;12.250;2023-02-23T09:02:26;99522.78;;;8.44;92.07
39699;BME280;25372;50.582;12.250;2023-02-23T09:12:47;99521.53;;;8.93;92.31
39699;BME280;25372;50.582;12.250;2023-02-23T09:23:09;99518.25;;;9.21;88.48
39699;BME280;25372;50.582;12.250;2023-02-23T09:33:30;99514.97;;;9.85;87.33
39699;BME280;25372;50.582;12.250;2023-02-23T09:43:57;99514.44;;;10.33;83.95
39699;BME280;25372;50.582;12.250;2023-02-23T09:54:21;99514.16;;;10.71;79.95
39699;BME280;25372;50.582;12.250;2023-02-23T10:04:45;99504.56;;;11.33;75.91
39699;BME280;25372;50.582;12.250;2023-02-23T10:15:15;99492.50;;;11.31;77.94
39699;BME280;25372;50.582;12.250;2023-02-23T10:25:42;99492.25;;;11.61;76.51
39699;BME280;25372;50.582;12.250;2023-02-23T10:36:11;99498.41;;;11.68;76.32
39699;BME280;25372;50.582;12.250;2023-02-23T10:46:37;99493.28;;;11.73;75.40
39699;BME280;25372;50.582;12.250;2023-02-23T10:56:59;99491.97;;;11.97;74.36
39699;BME280;25372;50.582;12.250;2023-02-23T11:07:23;99461.13;;;12.43;72.00
39699;BME280;25372;50.582;12.250;2023-02-23T11:17:54;99449.59;;;13.03;68.94
39699;BME280;25372;50.582;12.250;2023-02-23T11:28:18;99454.63;;;13.31;67.78
39699;BME280;25372;50.582;12.250;2023-02-23T11:38:40;99439.63;;;13.43;66.17
39699;BME280;25372;50.582;12.250;2023-02-23T11:49:06;99441.31;;;13.31;68.67
39699;BME280;25372;50.582;12.250;2023-02-23T11:59:29;99419.94;;;13.51;67.65
39699;BME280;25372;50.582;12.250;2023-02-23T12:09:58;99415.28;;;13.33;67.76
39699;BME280;25372;50.582;12.250;2023-02-23T12:20:22;99394.56;;;12.97;69.10
39699;BME280;25372;50.582;12.250;2023-02-23T12:30:49;99379.38;;;13.11;69.83
39699;BME280;25372;50.582;12.250;2023-02-23T12:41:12;99392.97;;;13.41;69.21
39699;BME280;25372;50.582;12.250;2023-02-23T12:51:38;99382.28;;;13.80;68.02
39699;BME280;25372;50.582;12.250;2023-02-23T13:02:02;99367.28;;;14.10;66.10
39699;BME280;25372;50.582;12.250;2023-02-23T13:12:41;99379.84;;;13.78;69.35
39699;BME280;25372;50.582;12.250;2023-02-23T13:23:13;99377.72;;;13.62;70.90
39699;BME280;25372;50.582;12.250;2023-02-23T13:33:38;99365.28;;;13.03;72.80
39699;BME280;25372;50.582;12.250;2023-02-23T13:44:02;99365.72;;;12.94;72.04
39699;BME280;25372;50.582;12.250;2023-02-23T13:54:33;99366.88;;;12.46;75.21
39699;BME280;25372;50.582;12.250;2023-02-23T14:04:56;99368.16;;;12.10;77.96
39699;BME280;25372;50.582;12.250;2023-02-23T14:15:41;99356.72;;;11.96;78.86
39699;BME280;25372;50.582;12.250;2023-02-23T14:36:47;99376.03;;;11.49;86.10
39699;BME280;25372;50.582;12.250;2023-02-23T14:47:13;99382.25;;;11.15;91.69
39699;BME280;25372;50.582;12.250;2023-02-23T14:57:38;99378.00;;;10.79;97.29
39699;BME280;25372;50.582;12.250;2023-02-23T15:08:00;99374.69;;;10.35;100.00
39699;BME280;25372;50.582;12.250;2023-02-23T15:29:49;99384.38;;;10.28;100.00
39699;BME280;25372;50.582;12.250;2023-02-23T15:40:13;99386.72;;;10.09;100.00
39699;BME280;25372;50.582;12.250;2023-02-23T15:50:39;99390.38;;;9.87;100.00
39699;BME280;25372;50.582;12.250;2023-02-23T16:01:08;99406.56;;;9.77;100.00
39699;BME280;25372;50.582;12.250;2023-02-23T16:11:33;99412.38;;;9.66;100.00
39699;BME280;25372;50.582;12.250;2023-02-23T16:21:57;99408.38;;;9.55;100.00
39699;BME280;25372;50.582;12.250;2023-02-23T16:32:20;99410.09;;;9.41;100.00
39699;BME280;25372;50.582;12.250;2023-02-23T16:42:43;99404.34;;;9.37;100.00
39699;BME280;25372;50.582;12.250;2023-02-23T16:53:06;99401.91;;;9.21;100.00
39699;BME280;25372;50.582;12.250;2023-02-23T17:03:29;99407.13;;;8.99;100.00
39699;BME280;25372;50.582;12.250;2023-02-23T17:13:51;99418.28;;;8.95;100.00
39699;BME280;25372;50.582;12.250;2023-02-23T17:24:12;99421.19;;;8.85;100.00
39699;BME280;25372;50.582;12.250;2023-02-23T17:34:34;99436.66;;;8.73;100.00
39699;BME280;25372;50.582;12.250;2023-02-23T17:44:55;99441.50;;;8.69;100.00
39699;BME280;25372;50.582;12.250;2023-02-23T17:55:19;99440.59;;;8.62;100.00
39699;BME280;25372;50.582;12.250;2023-02-23T18:05:39;99435.00;;;8.57;100.00
39699;BME280;25372;50.582;12.250;2023-02-23T18:16:03;99439.50;;;8.57;100.00
39699;BME280;25372;50.582;12.250;2023-02-23T18:26:27;99446.88;;;8.38;100.00
39699;BME280;25372;50.582;12.250;2023-02-23T18:36:49;99442.50;;;8.30;100.00
39699;BME280;25372;50.582;12.250;2023-02-23T18:47:10;99442.59;;;8.37;100.00
39699;BME280;25372;50.582;12.250;2023-02-23T18:57:32;99448.97;;;8.43;100.00
39699;BME280;25372;50.582;12.250;2023-02-23T19:07:53;99441.38;;;8.48;100.00
39699;BME280;25372;50.582;12.250;2023-02-23T19:18:15;99440.97;;;8.36;100.00
39699;BME280;25372;50.582;12.250;2023-02-23T19:28:36;99452.97;;;8.38;100.00
39699;BME280;25372;50.582;12.250;2023-02-23T19:38:59;99442.94;;;8.34;100.00
39699;BME280;25372;50.582;12.250;2023-02-23T19:49:28;99428.66;;;8.28;100.00
39699;BME280;25372;50.582;12.250;2023-02-23T19:59:51;99418.63;;;8.24;100.00
39699;BME280;25372;50.582;12.250;2023-02-23T20:10:11;99413.25;;;8.17;100.00
39699;BME280;25372;50.582;12.250;2023-02-23T20:20:37;99411.97;;;8.13;100.00
39699;BME280;25372;50.582;12.250;2023-02-23T20:30:58;99401.19;;;7.99;100.00
39699;BME280;25372;50.582;12.250;2023-02-23T20:41:21;99406.47;;;7.99;100.00
39699;BME280;25372;50.582;12.250;2023-02-23T20:51:44;99393.56;;;8.05;100.00
39699;BME280;25372;50.582;12.250;2023-02-23T21:02:06;99393.72;;;8.03;100.00
39699;BME280;25372;50.582;12.250;2023-02-23T21:12:29;99379.72;;;8.02;100.00
39699;BME280;25372;50.582;12.250;2023-02-23T21:22:51;99376.44;;;8.00;100.00
39699;BME280;25372;50.582;12.250;2023-02-23T21:33:12;99374.63;;;8.01;100.00
39699;BME280;25372;50.582;12.250;2023-02-23T21:43:35;99367.16;;;8.05;100.00
39699;BME280;25372;50.582;12.250;2023-02-23T21:53:56;99364.63;;;8.11;100.00
39699;BME280;25372;50.582;12.250;2023-02-23T22:04:18;99353.22;;;7.96;100.00
39699;BME280;25372;50.582;12.250;2023-02-23T22:14:39;99359.09;;;7.83;100.00
39699;BME280;25372;50.582;12.250;2023-02-23T22:25:01;99349.97;;;7.71;100.00
39699;BME280;25372;50.582;12.250;2023-02-23T22:35:22;99359.06;;;7.68;100.00
39699;BME280;25372;50.582;12.250;2023-02-23T22:45:44;99354.84;;;7.59;100.00
39699;BME280;25372;50.582;12.250;2023-02-23T22:56:06;99343.41;;;7.43;100.00
39699;BME280;25372;50.582;12.250;2023-02-23T23:06:28;99339.81;;;7.36;100.00
39699;BME280;25372;50.582;12.250;2023-02-23T23:16:48;99328.16;;;7.30;100.00
39699;BME280;25372;50.582;12.250;2023-02-23T23:27:11;99336.25;;;7.29;100.00
39699;BME280;25372;50.582;12.250;2023-02-23T23:37:34;99330.50;;;7.25;100.00
39699;BME280;25372;50.582;12.250;2023-02-23T23:47:59;99324.47;;;7.17;100.00
39699;BME280;25372;50.582;12.250;2023-02-23T23:58:19;99311.84;;;7.04;100.00
